Sarbogard, Hungary
Current Conditions -  °F | °C
As of 2:30 PM on Thursday 18 Dec 2014 (Local Time) from LHBP Reporting Station
Broken Clouds Broken Clouds  
Wind Chill: 43°   Ceiling: 6200
Heat Index: 48°   Visibility: 6mi
Dew Point: 41°   Wind: 12mph
Humidity: 76%   Direction: 250°WSW
Pressure: 30.03"   Gusts: NA
Location:  46.89°N, 18.63°E
Report Text: LHBP 181230Z 25010KT 9999 FEW029 BKN062 09/05 Q1017 NOSIG
Loading
Personal Weather Stations






























Interactive Weather Map New forecast layout! Learn more

10-Day Weather Forecast

Advertisements
Track Severe Weather on mobile